LGMT/MJT METAR and TAF weather

Enter ICAO airport designator
Station Type Date Time Source
LGMT METAR 2019/08/22 08:50 UTC NOAA

LGMT 220850Z 31012KT 240V360 CAVOK 30/16 Q1015


Station Type Date Time Source
LGMT Decoded METAR 2019/08/22 08:50 UTC NOAA

Station name not available
Aug 22, 2019 - 04:50 AM EDT / 2019.08.22 0850 UTC
Wind: from the NW (310 degrees) at 14 MPH (12 KT) (direction variable):0
Visibility: greater than 7 mile(s):0
Temperature: 86 F (30 C)
Dew Point: 60 F (16 C)
Relative Humidity: 42%
Pressure (altimeter): 29.97 in. Hg (1015 hPa)
ob: LGMT 220850Z 31012KT 240V360 CAVOK 30/16 Q1015
cycle: 9

Station Type Date Time Source
LGMT TAF 2012/09/21 03:06 UTC NOAA

TAF LGMT 210200Z 2103/2115 VRB05KT 9999 SCT020
BECMG 2103/2105 30015KT PROB30
TEMPO 2103/2106 7000 RA SCT018 BKN030
BECMG 2107/2109 29012KT

Example: see airport list